createdAt,value
2022-08-10T00:00:15.168Z,63.78
2022-08-10T00:01:15.169Z,63.89
2022-08-10T00:02:15.135Z,63.78
2022-08-10T00:03:15.169Z,63.48
2022-08-10T00:04:20.935Z,63.98
2022-08-10T00:05:16.437Z,64.09
2022-08-10T00:06:15.097Z,63.68
2022-08-10T00:07:15.094Z,63.89
2022-08-10T00:08:20.687Z,63.89
2022-08-10T00:09:16.074Z,63.89
2022-08-10T00:10:15.066Z,64.48
2022-08-10T00:11:15.421Z,64.78
2022-08-10T00:12:15.044Z,64.48
2022-08-10T00:13:15.026Z,64.62
2022-08-10T00:14:15.039Z,64.62
2022-08-10T00:15:53.108Z,64.69
2022-08-10T00:16:15.978Z,64.62
2022-08-10T00:17:14.974Z,64.31
2022-08-10T00:18:35.148Z,64.62
2022-08-10T00:19:17.369Z,64.62
2022-08-10T00:20:14.936Z,64.92
2022-08-10T00:21:14.925Z,65.01
2022-08-10T00:22:16.849Z,65.01
2022-08-10T00:23:14.933Z,65.12
2022-08-10T00:24:14.902Z,65.22
2022-08-10T00:25:14.909Z,65.31
2022-08-10T00:26:14.872Z,65.22
2022-08-10T00:27:59.055Z,65.22
2022-08-10T00:28:15.866Z,65.22
2022-08-10T00:29:14.833Z,65.12
2022-08-10T00:30:14.833Z,65.12
2022-08-10T00:31:14.836Z,65.31
2022-08-10T00:32:14.810Z,65.72
2022-08-10T00:33:14.805Z,65.62
2022-08-10T00:34:14.780Z,65.72
2022-08-10T00:35:14.783Z,65.82
2022-08-10T00:36:14.812Z,65.62
2022-08-10T00:37:14.780Z,65.72
2022-08-10T00:38:14.752Z,65.62
2022-08-10T00:39:16.572Z,65.92
2022-08-10T00:40:14.727Z,65.55
2022-08-10T00:41:14.698Z,66.05
2022-08-10T00:42:14.803Z,65.95
2022-08-10T00:43:14.697Z,65.95
2022-08-10T00:44:14.668Z,66.25
2022-08-10T00:45:14.675Z,66.05
2022-08-10T00:46:14.674Z,66.35
2022-08-10T00:47:22.615Z,66.35
2022-08-10T00:48:15.660Z,66.45
2022-08-10T00:49:14.619Z,66.45
2022-08-10T00:50:14.642Z,66.85
2022-08-10T00:51:14.621Z,66.75
2022-08-10T00:52:14.591Z,66.75
2022-08-10T00:53:14.593Z,67.05
2022-08-10T00:54:24.615Z,66.85
2022-08-10T00:55:15.575Z,66.85
2022-08-10T00:57:14.443Z,66.85
2022-08-10T00:57:18.606Z,66.85
2022-08-10T00:58:14.523Z,67.08
2022-08-10T00:59:14.563Z,66.99
2022-08-10T01:00:14.494Z,67.38
2022-08-10T01:02:10.192Z,67.38
2022-08-10T01:02:15.528Z,67.18
2022-08-10T01:03:14.465Z,67.08
2022-08-10T01:04:36.496Z,67.38
2022-08-10T01:05:15.466Z,67.18
2022-08-10T01:06:15.224Z,67.58
2022-08-10T01:07:14.418Z,67.29
2022-08-10T01:08:14.416Z,67.38
2022-08-10T01:09:14.398Z,67.88
2022-08-10T01:10:14.424Z,67.69
2022-08-10T01:12:37.772Z,67.88
2022-08-10T01:12:37.811Z,67.82
2022-08-10T01:13:15.379Z,68.22
2022-08-10T01:14:14.348Z,68.12
2022-08-10T01:15:14.340Z,68.32
2022-08-10T01:16:14.329Z,68.72
2022-08-10T01:17:14.317Z,68.52
2022-08-10T01:18:14.299Z,68.22
2022-08-10T01:19:14.310Z,68.32
2022-08-10T01:20:30.064Z,68.42
2022-08-10T01:21:15.278Z,68.22
2022-08-10T01:22:14.261Z,68.32
2022-08-10T01:23:14.270Z,68.42
2022-08-10T01:24:14.283Z,68.22
2022-08-10T01:25:14.234Z,68.42
2022-08-10T01:26:31.035Z,68.72
2022-08-10T01:27:15.202Z,68.62
2022-08-10T01:28:14.195Z,68.82
2022-08-10T01:29:14.253Z,68.82
2022-08-10T01:30:14.174Z,68.92
2022-08-10T01:31:14.163Z,68.92
2022-08-10T01:32:14.162Z,68.92
2022-08-10T01:33:14.165Z,69.26
2022-08-10T01:34:14.130Z,69.26
2022-08-10T01:35:14.135Z,69.15
2022-08-10T01:36:14.101Z,69.26
2022-08-10T01:37:14.092Z,69.26
2022-08-10T01:38:14.113Z,69.46
2022-08-10T01:39:14.144Z,69.66
2022-08-10T01:40:14.064Z,69.85
2022-08-10T01:41:14.056Z,69.46
2022-08-10T01:42:14.048Z,69.46
2022-08-10T01:43:14.024Z,69.46
2022-08-10T01:44:14.085Z,69.56
2022-08-10T01:45:14.019Z,69.35
2022-08-10T01:46:13.990Z,69.46
2022-08-10T01:47:13.989Z,69.46
2022-08-10T01:48:16.698Z,69.66
2022-08-10T01:49:13.999Z,69.96
2022-08-10T01:50:13.967Z,69.96
2022-08-10T01:51:13.948Z,69.85
2022-08-10T01:52:18.286Z,69.76
2022-08-10T01:53:13.911Z,69.99
2022-08-10T01:54:13.933Z,70.19
2022-08-10T01:55:13.909Z,70.39
2022-08-10T01:56:13.883Z,70.19
2022-08-10T01:57:13.865Z,70.29
2022-08-10T01:58:13.863Z,70.19
2022-08-10T01:59:13.904Z,70.50
2022-08-10T02:00:13.834Z,70.39
2022-08-10T02:01:16.645Z,70.39
2022-08-10T02:02:13.824Z,70.09
2022-08-10T02:03:13.798Z,70.19
2022-08-10T02:04:13.791Z,70.39
2022-08-10T02:05:13.827Z,70.39
2022-08-10T02:06:13.777Z,70.09
2022-08-10T02:07:13.781Z,70.29
2022-08-10T02:08:13.756Z,70.19
2022-08-10T02:09:13.741Z,70.29
2022-08-10T02:10:13.730Z,70.59
2022-08-10T02:11:13.728Z,70.79
2022-08-10T02:12:13.721Z,70.59
2022-08-10T02:13:13.698Z,70.79
2022-08-10T02:14:13.692Z,70.50
2022-08-10T02:15:13.697Z,70.79
2022-08-10T02:16:13.692Z,70.39
2022-08-10T02:17:59.562Z,70.70
2022-08-10T02:18:14.640Z,70.89
2022-08-10T02:19:13.621Z,71.00
2022-08-10T02:20:13.625Z,70.83
2022-08-10T02:21:13.622Z,70.93
2022-08-10T02:22:38.009Z,71.13
2022-08-10T02:23:14.602Z,71.13
2022-08-10T02:24:13.572Z,71.13
2022-08-10T02:25:41.260Z,71.23
2022-08-10T02:26:14.551Z,71.23
2022-08-10T02:27:13.549Z,71.23
2022-08-10T02:28:27.363Z,71.43
2022-08-10T02:29:14.520Z,71.53
2022-08-10T02:30:13.505Z,71.33
2022-08-10T02:31:13.485Z,71.23
2022-08-10T02:32:13.483Z,71.43
2022-08-10T02:33:16.414Z,71.43
2022-08-10T02:34:13.469Z,71.53
2022-08-10T02:35:21.911Z,71.83
2022-08-10T02:36:14.436Z,71.73
2022-08-10T02:37:13.474Z,71.83
2022-08-10T02:38:13.418Z,71.63
2022-08-10T02:39:13.468Z,71.63
2022-08-10T02:45:01.647Z,72.07
2022-08-10T02:45:13.000Z,72.07
2022-08-10T02:45:15.316Z,71.83
2022-08-10T02:45:18.216Z,72.27
2022-08-10T02:45:22.448Z,72.27
2022-08-10T02:45:29.077Z,72.37
2022-08-10T02:46:14.350Z,72.27
2022-08-10T02:47:14.331Z,72.37
2022-08-10T02:48:13.319Z,72.27
2022-08-10T02:49:13.290Z,72.67
2022-08-10T02:50:13.357Z,72.67
2022-08-10T02:51:13.273Z,72.47
2022-08-10T02:52:13.262Z,72.37
2022-08-10T02:53:54.412Z,72.37
2022-08-10T02:54:14.247Z,72.27
2022-08-10T02:55:17.638Z,72.67
2022-08-10T02:56:13.223Z,72.57
2022-08-10T02:57:13.200Z,72.47
2022-08-10T02:58:17.771Z,72.57
2022-08-10T02:59:14.176Z,72.67
2022-08-10T03:00:13.174Z,72.67
2022-08-10T03:01:13.246Z,72.77
2022-08-10T03:02:13.149Z,72.87
2022-08-10T03:03:13.125Z,72.87
2022-08-10T03:04:13.125Z,72.77
2022-08-10T03:05:13.116Z,72.97
2022-08-10T03:06:13.145Z,72.77
2022-08-10T03:07:13.090Z,72.77
2022-08-10T03:08:13.094Z,72.77
2022-08-10T03:09:15.098Z,72.77
2022-08-10T03:10:14.457Z,72.87
2022-08-10T03:11:13.048Z,72.87
2022-08-10T03:12:35.314Z,72.97
2022-08-10T03:13:14.028Z,72.97
2022-08-10T03:14:13.059Z,72.97
2022-08-10T03:15:15.461Z,73.00
2022-08-10T03:16:12.992Z,73.11
2022-08-10T03:17:13.020Z,73.21
2022-08-10T03:18:12.999Z,73.31
2022-08-10T03:20:34.466Z,73.31
2022-08-10T03:20:38.468Z,73.11
2022-08-10T03:21:13.938Z,73.21
2022-08-10T03:22:12.930Z,73.51
2022-08-10T03:23:12.946Z,73.51
2022-08-10T03:24:30.238Z,73.51
2022-08-10T03:25:13.894Z,73.51
2022-08-10T03:26:12.893Z,73.41
2022-08-10T03:27:12.872Z,73.41
2022-08-10T03:28:12.862Z,73.41
2022-08-10T03:29:13.883Z,73.51
2022-08-10T03:30:31.734Z,73.41
2022-08-10T03:31:13.825Z,73.51
2022-08-10T03:32:12.824Z,73.51
2022-08-10T03:33:12.808Z,73.61
2022-08-10T03:34:22.334Z,73.41
2022-08-10T03:35:13.812Z,73.41
2022-08-10T03:36:43.571Z,73.51
2022-08-10T03:37:13.764Z,73.61
2022-08-10T03:38:12.756Z,73.81
2022-08-10T03:39:12.752Z,73.81
2022-08-10T03:40:12.756Z,73.91
2022-08-10T03:41:16.129Z,73.95
2022-08-10T03:42:12.725Z,73.95
2022-08-10T03:43:12.698Z,74.05
2022-08-10T03:44:12.729Z,74.05
2022-08-10T03:45:12.678Z,74.05
2022-08-10T03:46:12.711Z,74.25
2022-08-10T03:47:16.131Z,74.25
2022-08-10T03:48:12.663Z,74.15
2022-08-10T03:49:12.631Z,74.45
2022-08-10T03:50:27.976Z,74.35
2022-08-10T03:51:13.610Z,74.55
2022-08-10T03:52:12.640Z,74.35
2022-08-10T03:53:25.709Z,74.35
2022-08-10T03:54:13.584Z,74.45
2022-08-10T03:55:12.592Z,74.55
2022-08-10T03:56:30.017Z,74.55
2022-08-10T03:57:13.573Z,74.65
2022-08-10T03:58:12.557Z,74.55
2022-08-10T03:59:12.544Z,74.75
2022-08-10T04:00:12.516Z,74.75
2022-08-10T04:01:12.558Z,74.75
2022-08-10T04:02:45.458Z,74.75
2022-08-10T04:03:13.490Z,74.75
2022-08-10T04:04:15.379Z,74.75
2022-08-10T04:05:13.471Z,74.55
2022-08-10T04:06:12.461Z,74.65
2022-08-10T04:07:12.436Z,74.75
2022-08-10T04:08:12.432Z,74.75
2022-08-10T04:09:12.486Z,74.95
2022-08-10T04:10:13.062Z,74.65
2022-08-10T04:11:12.391Z,74.95
2022-08-10T04:12:12.383Z,74.85
2022-08-10T04:13:12.380Z,74.85
2022-08-10T04:14:38.613Z,74.75
2022-08-10T04:15:13.369Z,74.85
2022-08-10T04:16:12.378Z,75.05
2022-08-10T04:17:14.152Z,74.95
2022-08-10T04:18:12.320Z,74.85
2022-08-10T04:19:12.299Z,74.75
2022-08-10T04:20:13.302Z,74.75
2022-08-10T04:21:12.292Z,74.65
2022-08-10T04:22:12.311Z,74.95
2022-08-10T04:23:12.259Z,74.95
2022-08-10T04:24:12.265Z,74.85
2022-08-10T04:25:13.240Z,74.95
2022-08-10T04:26:12.231Z,74.85
2022-08-10T04:27:12.217Z,74.85
2022-08-10T04:28:12.234Z,74.55
2022-08-10T04:29:12.197Z,74.35
2022-08-10T04:30:12.193Z,74.35
2022-08-10T04:31:12.188Z,74.25
2022-08-10T04:32:12.192Z,74.15
2022-08-10T04:33:12.183Z,73.95
2022-08-10T04:34:12.136Z,74.15
2022-08-10T04:35:12.134Z,74.35
2022-08-10T04:36:12.122Z,74.35
2022-08-10T04:37:12.117Z,74.05
2022-08-10T04:38:12.093Z,74.05
2022-08-10T04:39:12.138Z,74.25
2022-08-10T04:40:29.351Z,74.25
2022-08-10T04:41:13.089Z,74.15
2022-08-10T04:42:12.048Z,74.25
2022-08-10T04:43:13.291Z,74.35
2022-08-10T04:44:12.028Z,74.35
2022-08-10T04:45:12.067Z,74.25
2022-08-10T04:46:43.060Z,74.45
2022-08-10T04:47:13.008Z,74.35
2022-08-10T04:48:40.136Z,74.55
2022-08-10T04:49:54.181Z,74.55
2022-08-10T04:50:13.023Z,74.55
2022-08-10T04:51:17.769Z,74.55
2022-08-10T04:52:12.978Z,74.35
2022-08-10T04:53:11.954Z,74.25
2022-08-10T04:54:15.524Z,74.35
2022-08-10T04:55:11.936Z,74.35
2022-08-10T04:56:11.907Z,74.25
2022-08-10T04:57:11.892Z,74.55
2022-08-10T04:58:11.889Z,74.65
2022-08-10T04:59:11.891Z,74.75
2022-08-10T05:00:18.823Z,74.55
2022-08-10T05:01:12.871Z,74.25
2022-08-10T05:02:30.403Z,74.35
2022-08-10T05:03:12.830Z,74.35
2022-08-10T05:04:35.447Z,74.15
2022-08-10T05:05:12.827Z,73.75
2022-08-10T05:06:11.795Z,73.95
2022-08-10T05:07:16.055Z,73.95
2022-08-10T05:08:12.767Z,74.15
2022-08-10T05:09:11.765Z,74.15
2022-08-10T05:10:13.592Z,74.15
2022-08-10T05:11:11.742Z,74.15
2022-08-10T05:12:12.726Z,74.25
2022-08-10T05:13:11.716Z,73.85
2022-08-10T05:14:11.698Z,73.75
2022-08-10T05:15:11.711Z,73.75
2022-08-10T05:16:11.677Z,73.85
2022-08-10T05:17:12.676Z,73.85
2022-08-10T05:18:11.695Z,73.55
2022-08-10T05:19:11.659Z,73.95
2022-08-10T05:20:11.640Z,73.65
2022-08-10T05:21:11.634Z,73.44
2022-08-10T05:22:12.615Z,73.35
2022-08-10T05:23:11.609Z,73.44
2022-08-10T05:24:11.648Z,73.35
2022-08-10T05:25:11.590Z,73.35
2022-08-10T05:26:11.597Z,73.55
2022-08-10T05:27:11.565Z,73.14
2022-08-10T05:28:11.546Z,73.24
2022-08-10T05:29:11.549Z,73.35
2022-08-10T05:30:11.533Z,73.04
2022-08-10T05:31:11.557Z,73.04
2022-08-10T05:32:12.512Z,73.11
2022-08-10T05:33:11.533Z,73.11
2022-08-10T05:34:20.364Z,73.51
2022-08-10T05:35:12.475Z,73.41
2022-08-10T05:36:11.462Z,73.00
2022-08-10T05:38:12.331Z,73.91
2022-08-10T05:38:14.612Z,73.51
2022-08-10T05:39:11.483Z,73.31
2022-08-10T05:40:11.456Z,73.18
2022-08-10T05:41:11.410Z,72.87
2022-08-10T05:42:11.399Z,72.97
2022-08-10T05:43:11.395Z,72.57
2022-08-10T05:44:11.390Z,72.47
2022-08-10T05:45:11.369Z,72.07
2022-08-10T05:46:17.475Z,71.87
2022-08-10T05:47:12.919Z,71.73
2022-08-10T05:48:54.462Z,71.83
2022-08-10T05:49:12.344Z,71.03
2022-08-10T05:50:11.309Z,71.43
2022-08-10T05:51:11.327Z,70.83
2022-08-10T05:52:11.298Z,70.73
2022-08-10T05:54:03.314Z,70.73
2022-08-10T05:54:12.303Z,70.23
2022-08-10T05:55:11.254Z,70.12
2022-08-10T05:56:11.239Z,70.32
2022-08-10T05:57:11.231Z,70.23
2022-08-10T05:58:11.219Z,70.53
2022-08-10T05:59:11.257Z,70.59
2022-08-10T06:00:37.245Z,70.50
2022-08-10T06:01:12.231Z,70.70
2022-08-10T06:02:34.132Z,69.89
2022-08-10T06:03:12.166Z,69.89
2022-08-10T06:04:11.145Z,69.79
2022-08-10T06:05:11.183Z,69.79
2022-08-10T06:06:11.125Z,69.69
2022-08-10T06:07:11.127Z,69.99
2022-08-10T06:08:11.159Z,70.16
2022-08-10T06:09:11.096Z,69.85
2022-08-10T06:10:11.081Z,69.56
2022-08-10T06:12:24.239Z,69.46
2022-08-10T06:12:27.135Z,69.76
2022-08-10T06:13:26.811Z,69.06
2022-08-10T06:14:12.924Z,69.26
2022-08-10T06:15:21.879Z,68.76
2022-08-10T06:16:12.041Z,68.62
2022-08-10T06:17:11.004Z,68.42
2022-08-10T06:18:10.995Z,68.82
2022-08-10T06:19:11.014Z,68.32
2022-08-10T06:20:10.971Z,68.02
2022-08-10T06:21:10.964Z,68.02
2022-08-10T06:22:10.944Z,67.99
2022-08-10T06:23:10.951Z,67.88
2022-08-10T09:53:21.751Z,50.04
2022-08-10T09:54:00.698Z,50.83
2022-08-10T09:55:00.686Z,50.63
2022-08-10T09:56:18.281Z,51.12
2022-08-10T09:57:18.221Z,50.93
2022-08-10T09:58:01.993Z,51.72
2022-08-10T09:59:59.410Z,50.34
2022-08-10T10:00:02.792Z,49.74
2022-08-10T10:01:00.630Z,49.94
2022-08-10T10:02:03.956Z,49.94
2022-08-10T10:03:00.655Z,49.84
2022-08-10T10:04:00.617Z,49.44
2022-08-10T10:05:00.584Z,50.51
2022-08-10T10:06:00.610Z,49.42
2022-08-10T10:07:00.563Z,49.81
2022-08-10T10:08:01.464Z,49.42
2022-08-10T10:09:09.878Z,49.42
2022-08-10T10:10:01.563Z,48.72
2022-08-10T10:11:00.513Z,49.02
2022-08-10T10:12:05.342Z,49.22
2022-08-10T10:13:01.509Z,48.72
2022-08-10T10:14:03.135Z,48.82
2022-08-10T10:15:00.466Z,49.62
2022-08-10T10:16:00.479Z,49.91
2022-08-10T10:17:00.487Z,49.81
2022-08-10T10:18:00.445Z,50.09
2022-08-10T10:19:00.438Z,50.09
2022-08-10T10:20:00.420Z,49.49
2022-08-10T10:21:00.386Z,49.00
2022-08-10T10:22:00.420Z,48.30
2022-08-10T10:23:00.389Z,48.70
2022-08-10T10:24:20.350Z,49.79
2022-08-10T10:25:01.354Z,49.87
2022-08-10T10:26:04.919Z,49.69
2022-08-10T10:27:00.331Z,49.47
2022-08-10T10:28:00.353Z,48.38
2022-08-10T10:29:30.661Z,50.06
2022-08-10T10:30:01.313Z,49.47
2022-08-10T10:31:00.284Z,50.06
2022-08-10T10:32:00.292Z,49.17
2022-08-10T10:33:00.295Z,49.07
2022-08-10T10:34:00.286Z,49.66
2022-08-10T10:35:00.262Z,50.85
2022-08-10T10:36:00.319Z,49.77
2022-08-10T10:37:00.227Z,49.07
2022-08-10T10:38:03.212Z,48.08
2022-08-10T10:39:00.205Z,48.48
2022-08-10T10:40:00.326Z,47.69
2022-08-10T10:41:00.196Z,49.05
2022-08-10T10:42:04.626Z,49.74
2022-08-10T10:43:00.172Z,47.77
2022-08-10T10:44:00.150Z,46.97
2022-08-10T10:45:00.130Z,46.85
2022-08-10T10:46:00.153Z,45.86
2022-08-10T10:47:00.139Z,45.37
2022-08-10T10:48:00.105Z,45.27
2022-08-10T10:49:00.102Z,44.65
2022-08-10T10:50:00.104Z,45.35
2022-08-10T10:51:00.089Z,45.35
2022-08-10T10:52:02.049Z,45.23
2022-08-10T10:53:00.057Z,45.52
2022-08-10T10:54:00.050Z,44.14
2022-08-10T10:55:00.062Z,44.42
2022-08-10T10:56:15.416Z,44.42
2022-08-10T10:57:01.051Z,44.71
2022-08-10T10:58:01.194Z,44.22
2022-08-10T10:58:59.995Z,44.51
2022-08-10T10:59:59.977Z,43.11
2022-08-10T11:02:10.425Z,43.90
2022-08-10T11:03:10.123Z,42.32
2022-08-10T11:04:10.134Z,42.02
2022-08-10T11:05:10.125Z,41.83
2022-08-10T11:06:10.120Z,42.42
2022-08-10T11:07:10.073Z,42.61
2022-08-10T11:08:14.555Z,43.31
2022-08-10T11:09:11.552Z,43.60
2022-08-10T11:10:31.897Z,42.91
2022-08-10T11:11:20.533Z,43.21
2022-08-10T11:12:11.016Z,42.82
2022-08-10T11:14:23.545Z,41.63
2022-08-10T11:14:25.004Z,41.71
2022-08-10T11:15:10.981Z,42.60
2022-08-10T11:16:10.003Z,43.59
2022-08-10T11:17:09.958Z,42.30
2022-08-10T11:18:09.947Z,42.30
2022-08-10T11:19:09.967Z,43.68
2022-08-10T11:20:10.046Z,42.89
2022-08-10T11:21:09.939Z,42.79
2022-08-10T11:22:14.515Z,42.10
2022-08-10T11:23:10.901Z,42.69
2022-08-10T11:24:42.700Z,42.69
2022-08-10T11:25:10.891Z,42.60
2022-08-10T11:26:09.893Z,42.58
2022-08-10T11:27:09.852Z,42.28
2022-08-10T11:28:10.900Z,42.87
2022-08-10T11:29:09.829Z,42.18
2022-08-10T11:30:09.846Z,42.08
2022-08-10T11:31:09.814Z,43.17
2022-08-10T11:32:09.800Z,43.34
2022-08-10T11:33:10.777Z,42.55
2022-08-10T11:34:46.794Z,41.47
2022-08-10T11:35:12.516Z,41.08
2022-08-10T11:36:09.774Z,40.78
2022-08-10T11:37:09.751Z,42.36
2022-08-10T11:38:32.769Z,42.07
2022-08-10T11:39:14.515Z,42.26
2022-08-10T11:40:09.836Z,41.27
2022-08-10T11:42:06.121Z,41.47
2022-08-10T11:42:20.065Z,41.17
2022-08-10T11:43:10.682Z,42.26
2022-08-10T11:44:09.667Z,42.07
2022-08-10T11:45:09.670Z,42.16
2022-08-10T11:46:09.660Z,42.07
2022-08-10T11:47:09.654Z,41.86
2022-08-10T11:48:09.652Z,41.47
2022-08-10T11:49:09.611Z,41.47
2022-08-10T11:50:09.606Z,41.38
2022-08-10T11:51:09.640Z,40.69
2022-08-10T11:52:09.573Z,41.65
2022-08-10T11:53:09.614Z,42.04
2022-08-10T11:54:09.586Z,42.04
2022-08-10T11:55:09.564Z,41.65
2022-08-10T11:56:11.014Z,41.94
2022-08-10T11:57:09.575Z,41.35
2022-08-10T11:58:09.532Z,41.16
2022-08-10T11:59:17.053Z,41.45
2022-08-10T12:00:10.508Z,41.06
2022-08-10T12:01:09.531Z,41.75
2022-08-10T12:02:09.543Z,41.06
2022-08-10T12:03:09.567Z,40.86
2022-08-10T12:04:11.950Z,41.25
2022-08-10T12:05:09.462Z,40.37
2022-08-10T12:06:09.439Z,40.17
2022-08-10T12:09:22.608Z,39.87
2022-08-10T12:10:05.581Z,40.86
2022-08-10T12:10:09.094Z,39.97
2022-08-10T12:10:13.828Z,40.37
2022-08-10T12:11:09.383Z,40.76
2022-08-10T12:12:09.395Z,41.06
2022-08-10T12:13:09.361Z,40.56
2022-08-10T12:14:24.763Z,40.37
2022-08-10T12:15:10.368Z,41.65
2022-08-10T12:16:09.370Z,39.66
2022-08-10T12:17:09.357Z,40.16
2022-08-10T12:18:09.326Z,40.16
2022-08-10T12:19:09.345Z,39.68
2022-08-10T12:20:09.291Z,39.18
2022-08-10T12:21:09.292Z,39.78
2022-08-10T12:22:10.305Z,40.16
2022-08-10T12:23:09.305Z,40.94
2022-08-10T12:24:09.245Z,41.24
2022-08-10T12:25:09.308Z,40.64
2022-08-10T12:26:09.255Z,40.45
2022-08-10T12:27:13.181Z,39.56
2022-08-10T12:28:09.215Z,38.66
2022-08-10T12:29:09.197Z,39.15
2022-08-10T12:30:09.182Z,39.25
2022-08-10T12:31:09.225Z,39.54
2022-08-10T12:32:09.179Z,39.92
2022-08-10T12:33:09.177Z,40.21
2022-08-10T12:34:09.152Z,39.92
2022-08-10T12:35:09.130Z,39.13
2022-08-10T12:36:18.181Z,39.60
2022-08-10T12:37:10.142Z,39.01
2022-08-10T12:38:09.111Z,38.21
2022-08-10T12:39:09.117Z,38.09
2022-08-10T12:40:35.030Z,38.17
2022-08-10T12:41:10.076Z,37.86
2022-08-10T12:42:09.044Z,36.47
2022-08-10T12:44:03.772Z,36.35
2022-08-10T12:44:10.299Z,37.12
2022-08-10T12:45:09.020Z,35.93
2022-08-10T12:46:09.063Z,35.42
2022-08-10T12:47:14.535Z,34.81
2022-08-10T12:48:09.997Z,34.11
2022-08-10T12:49:08.976Z,34.31
2022-08-10T12:50:29.821Z,34.00
2022-08-10T12:51:10.003Z,33.98
2022-08-10T12:52:08.977Z,33.69
2022-08-10T12:53:08.957Z,34.26
2022-08-10T12:54:08.938Z,33.07
2022-08-10T12:55:08.928Z,33.17
2022-08-10T12:56:08.920Z,33.44
2022-08-10T12:57:08.899Z,34.79
2022-08-10T12:58:57.800Z,34.11
2022-08-10T12:59:09.912Z,34.29
2022-08-10T13:00:17.257Z,34.48
2022-08-10T13:01:17.681Z,34.68
2022-08-10T13:02:11.102Z,34.19
2022-08-10T13:03:08.970Z,33.70
2022-08-10T13:04:20.438Z,33.80
2022-08-10T13:05:09.824Z,33.49
2022-08-10T13:06:08.814Z,32.32
2022-08-10T13:07:08.823Z,32.50
2022-08-10T13:08:26.936Z,31.92
2022-08-10T13:09:09.808Z,32.59
2022-08-10T13:10:08.775Z,31.61
2022-08-10T13:11:18.474Z,32.28
2022-08-10T13:12:35.886Z,30.62
2022-08-10T13:13:09.745Z,32.18
2022-08-10T13:14:08.758Z,31.29
2022-08-10T13:15:45.127Z,30.51
2022-08-10T13:16:09.748Z,30.79
2022-08-10T13:17:08.716Z,30.87
2022-08-10T13:18:18.217Z,31.07
2022-08-10T13:19:09.708Z,30.58
2022-08-10T13:20:13.847Z,30.76
2022-08-10T13:21:20.064Z,30.18
2022-08-10T13:22:09.689Z,29.77
2022-08-10T13:23:08.661Z,29.87
2022-08-10T13:24:08.658Z,29.28
2022-08-10T13:25:08.636Z,28.59
2022-08-10T13:26:08.690Z,29.95
2022-08-10T13:27:25.169Z,29.26
2022-08-10T13:28:35.560Z,28.58
2022-08-10T13:29:13.164Z,28.69
2022-08-10T13:30:10.326Z,28.98
2022-08-10T13:31:08.601Z,29.47
2022-08-10T13:32:10.820Z,28.59
2022-08-10T13:33:08.595Z,29.68
2022-08-10T13:34:43.943Z,29.10
2022-08-10T13:35:09.544Z,28.80
2022-08-10T13:36:08.560Z,28.80
2022-08-10T13:37:08.538Z,29.50
2022-08-10T13:38:08.530Z,30.27
2022-08-10T13:39:08.595Z,30.08
2022-08-10T13:40:08.595Z,29.50
2022-08-10T13:41:08.499Z,29.38
2022-08-10T13:42:08.518Z,28.91
2022-08-10T13:43:08.503Z,28.72
2022-08-10T13:44:08.509Z,28.83
2022-08-10T13:45:08.458Z,28.85
2022-08-10T13:46:08.469Z,28.65
2022-08-10T13:47:09.454Z,29.44
2022-08-10T13:48:08.447Z,30.82
2022-08-10T13:49:08.459Z,29.86
2022-08-10T13:50:08.429Z,31.24
2022-08-10T13:51:08.465Z,30.57
2022-08-10T13:52:08.424Z,32.15
2022-08-10T13:53:13.998Z,30.00
2022-08-10T13:54:09.420Z,30.80
2022-08-10T13:55:08.395Z,30.42
2022-08-10T13:56:08.403Z,31.51
2022-08-10T13:57:08.374Z,31.43
2022-08-10T13:58:08.332Z,31.54
2022-08-10T13:59:10.101Z,31.95
2022-08-10T14:00:34.291Z,31.75
2022-08-10T14:01:09.431Z,32.65
2022-08-10T14:02:08.389Z,32.56
2022-08-10T14:03:08.267Z,33.64
2022-08-10T14:04:08.462Z,33.46
2022-08-10T14:05:08.275Z,34.44
2022-08-10T14:06:08.286Z,33.65
2022-08-10T14:07:08.260Z,33.87
2022-08-10T14:08:08.267Z,33.87
2022-08-10T14:09:08.239Z,32.61
2022-08-10T14:10:08.221Z,34.57
2022-08-10T14:11:11.147Z,35.35
2022-08-10T14:12:08.211Z,33.39
2022-08-10T14:13:08.182Z,33.10
2022-08-10T14:14:08.174Z,34.86
2022-08-10T14:15:08.195Z,34.08
2022-08-10T14:16:08.165Z,33.70
2022-08-10T14:17:08.153Z,33.02
2022-08-10T14:18:08.141Z,35.66
2022-08-10T14:19:08.117Z,34.39
2022-08-10T14:20:12.469Z,34.39
2022-08-10T14:21:09.107Z,33.80
2022-08-10T14:22:08.102Z,34.20
2022-08-10T14:23:08.089Z,33.70
2022-08-10T14:24:08.078Z,34.10
2022-08-10T14:25:08.055Z,34.20
2022-08-10T14:26:09.170Z,34.47
2022-08-10T14:27:08.032Z,34.38
2022-08-10T14:28:08.037Z,34.84
2022-08-10T14:29:08.049Z,34.26
2022-08-10T14:30:07.998Z,33.09
2022-08-10T14:31:08.016Z,34.55
2022-08-10T14:32:08.002Z,33.97
2022-08-10T14:33:08.009Z,34.06
2022-08-10T14:34:07.968Z,34.65
2022-08-10T14:36:19.324Z,33.79
2022-08-10T14:36:21.253Z,33.79
2022-08-10T14:37:08.976Z,33.29
2022-08-10T14:38:07.925Z,33.80
2022-08-10T14:39:07.972Z,34.30
2022-08-10T14:40:07.892Z,33.90
2022-08-10T14:41:07.911Z,34.98
2022-08-10T14:42:18.972Z,34.69
2022-08-10T14:43:08.856Z,35.17
2022-08-10T14:44:07.862Z,34.59
2022-08-10T14:45:14.936Z,33.90
2022-08-10T14:46:07.857Z,34.69
2022-08-10T14:47:51.374Z,34.00
2022-08-10T14:48:08.850Z,34.31
2022-08-10T14:49:25.633Z,34.01
2022-08-10T14:50:09.020Z,34.11
2022-08-10T14:51:07.864Z,35.60
2022-08-10T14:52:07.835Z,37.66
2022-08-10T14:53:09.799Z,38.15
2022-08-10T14:54:07.769Z,37.29
2022-08-10T14:55:19.283Z,37.58
2022-08-10T14:56:08.756Z,37.90
2022-08-10T14:57:10.897Z,38.68
2022-08-10T14:58:19.766Z,36.74
2022-08-10T14:59:09.647Z,37.42
2022-08-10T15:00:28.060Z,37.74
2022-08-10T15:01:09.664Z,37.05
2022-08-10T15:02:40.860Z,36.46
2022-08-10T15:03:16.072Z,37.54
2022-08-10T15:04:08.755Z,37.76
2022-08-10T15:05:09.080Z,37.26
2022-08-10T15:06:07.638Z,37.85
2022-08-10T15:07:11.912Z,37.84
2022-08-10T15:08:07.627Z,37.15
2022-08-10T15:09:18.915Z,36.16
2022-08-10T15:10:08.638Z,35.77
2022-08-10T15:11:07.568Z,37.05
2022-08-10T15:12:15.810Z,38.23
2022-08-10T15:13:08.538Z,37.07
2022-08-10T15:14:34.082Z,36.77
2022-08-10T15:15:08.538Z,38.05
2022-08-10T15:16:12.897Z,37.07
2022-08-10T15:17:08.520Z,36.87
2022-08-10T15:27:30.258Z,37.72
2022-08-10T15:28:37.253Z,37.23
2022-08-10T15:29:31.182Z,36.82
2022-08-10T15:30:31.718Z,36.32
2022-08-10T15:31:30.150Z,35.62
2022-08-10T15:32:30.154Z,35.33
2022-08-10T15:34:02.396Z,35.23
2022-08-10T15:34:31.120Z,36.40
2022-08-10T15:35:30.170Z,36.99
2022-08-10T15:36:30.130Z,37.09
2022-08-10T15:37:36.336Z,35.82
2022-08-10T15:38:34.698Z,36.80
2022-08-10T15:40:25.261Z,36.80
2022-08-10T15:40:35.835Z,36.91
2022-08-10T15:41:57.837Z,35.42
2022-08-10T15:42:31.074Z,36.68
2022-08-10T15:43:36.914Z,36.27
2022-08-10T15:44:31.047Z,35.25
2022-08-10T15:45:30.021Z,35.04
2022-08-10T15:46:30.266Z,33.95
2022-08-10T15:47:45.991Z,34.13
2022-08-10T15:48:30.976Z,33.23
2022-08-10T15:49:29.994Z,33.33
2022-08-10T15:50:29.990Z,33.23
2022-08-10T15:51:33.704Z,33.25
2022-08-10T15:52:59.898Z,32.87
2022-08-10T15:53:30.931Z,34.06
2022-08-10T15:54:33.691Z,34.47
2022-08-10T15:55:42.493Z,35.27
2022-08-10T15:56:30.889Z,34.90
2022-08-10T15:57:29.873Z,34.90
2022-08-10T15:58:39.032Z,34.81
2022-08-10T15:59:30.868Z,36.29
2022-08-10T16:00:29.898Z,36.09
2022-08-10T16:02:04.609Z,36.01
2022-08-10T16:02:30.905Z,36.51
2022-08-10T16:03:29.881Z,36.91
2022-08-10T16:04:31.916Z,36.72
2022-08-10T16:05:40.820Z,35.91
2022-08-10T16:06:30.828Z,36.09
2022-08-10T16:07:38.958Z,34.72
2022-08-10T16:08:30.809Z,36.19
2022-08-10T16:10:22.252Z,35.89
2022-08-10T16:10:30.888Z,35.78
2022-08-10T16:11:37.436Z,35.66
2022-08-10T16:12:30.717Z,35.16
2022-08-10T16:13:59.685Z,35.14
2022-08-10T16:14:30.748Z,34.44
2022-08-10T16:15:29.712Z,33.64
2022-08-10T16:16:29.674Z,33.62
2022-08-10T16:17:29.696Z,33.41
2022-08-10T16:18:30.668Z,33.59
2022-08-10T16:19:29.649Z,32.79
2022-08-10T16:20:31.282Z,32.40
2022-08-10T16:21:29.636Z,32.68
2022-08-10T16:22:36.265Z,31.99
2022-08-10T16:23:30.647Z,32.19
2022-08-10T16:24:29.614Z,32.79
2022-08-10T16:25:51.706Z,32.71
2022-08-10T16:26:30.907Z,33.22
2022-08-10T16:27:29.551Z,32.65
2022-08-10T16:28:29.571Z,33.82
2022-08-10T16:29:29.563Z,33.92
2022-08-10T16:30:29.534Z,33.94
2022-08-10T16:31:29.553Z,33.26